Accueil
METAR-TAF:

METAR-TAF

Aéroports :

Deer Park, Washington, États-Unis

Deer Park Airport

latitude: 47-58-27N, longitude: 117-25-42W, altitude: 672 m

Observation

Le bulletin a été fait il y a 27 minutes, à 10:53 UTC
Vent calme
Température -7°C
Humidité 86%
Pression 1037 hPa
Visibilité: 16.1 km
Nuages fragmentés à une hauteur de 800 ft

METAR: KDEW 111053Z AUTO 00000KT 10SM BKN008 M07/M09 A3061 RMK AO2 SLP398 I1000 T10721089

Heure: 03:20 (11:20 UTC)


TAF: absent

Observations et prévisions météorologiques de plus de 4000 aéroports (messages METAR et TAF).

Les stations disponibles sont représentées par des disques jaunes et rouges sur la carte.

Passer la souris dessus pour voir le nom de la station.

Cliquer dessus pour voir les observations et prévisions météorologiques.

Pour changer de carte: cliquez sur les boutons verts avec une croix noire pour zoomer, sur le bouton vert avec un tiret pour effectuer un zoom arrière, ou sur les flèches vertes pour les cartes adjacentes.


METAR-TAF: